sensor_id;sensor_type;location;lat;lon;timestamp;temperature;humidity
35085;SHT85;21267;51.032;6.998;2022-09-09T00:04:30;17.35;85.54
35085;SHT85;21267;51.032;6.998;2022-09-09T00:09:50;17.58;83.70
35085;SHT85;21267;51.032;6.998;2022-09-09T00:13:00;17.65;83.00
35085;SHT85;21267;51.032;6.998;2022-09-09T00:18:27;17.57;84.74
35085;SHT85;21267;51.032;6.998;2022-09-09T00:21:06;17.31;85.51
35085;SHT85;21267;51.032;6.998;2022-09-09T00:23:37;17.37;85.44
35085;SHT85;21267;51.032;6.998;2022-09-09T00:26:41;17.52;84.90
35085;SHT85;21267;51.032;6.998;2022-09-09T00:29:18;17.48;85.25
35085;SHT85;21267;51.032;6.998;2022-09-09T00:31:48;17.31;85.87
35085;SHT85;21267;51.032;6.998;2022-09-09T00:34:22;17.23;85.98
35085;SHT85;21267;51.032;6.998;2022-09-09T00:36:52;17.23;86.21
35085;SHT85;21267;51.032;6.998;2022-09-09T00:39:27;17.17;85.95
35085;SHT85;21267;51.032;6.998;2022-09-09T00:44:33;17.11;86.38
35085;SHT85;21267;51.032;6.998;2022-09-09T00:50:15;17.07;86.90
35085;SHT85;21267;51.032;6.998;2022-09-09T00:53:09;17.07;86.81
35085;SHT85;21267;51.032;6.998;2022-09-09T00:55:48;17.08;86.87
35085;SHT85;21267;51.032;6.998;2022-09-09T00:58:18;17.10;86.80
35085;SHT85;21267;51.032;6.998;2022-09-09T01:00:50;17.08;86.71
35085;SHT85;21267;51.032;6.998;2022-09-09T01:03:38;17.14;86.64
35085;SHT85;21267;51.032;6.998;2022-09-09T01:06:35;17.07;86.50
35085;SHT85;21267;51.032;6.998;2022-09-09T01:17:26;17.04;86.49
35085;SHT85;21267;51.032;6.998;2022-09-09T01:28:16;16.99;84.81
35085;SHT85;21267;51.032;6.998;2022-09-09T01:30:44;17.00;83.59
35085;SHT85;21267;51.032;6.998;2022-09-09T01:33:14;17.02;83.62
35085;SHT85;21267;51.032;6.998;2022-09-09T01:35:57;17.10;82.52
35085;SHT85;21267;51.032;6.998;2022-09-09T01:38:27;17.14;81.62
35085;SHT85;21267;51.032;6.998;2022-09-09T01:40:54;17.18;81.83
35085;SHT85;21267;51.032;6.998;2022-09-09T01:43:22;17.17;81.50
35085;SHT85;21267;51.032;6.998;2022-09-09T01:45:52;17.14;81.28
35085;SHT85;21267;51.032;6.998;2022-09-09T01:48:21;17.13;81.59
35085;SHT85;21267;51.032;6.998;2022-09-09T01:50:48;17.04;81.97
35085;SHT85;21267;51.032;6.998;2022-09-09T01:53:17;17.07;82.03
35085;SHT85;21267;51.032;6.998;2022-09-09T01:56:05;17.08;82.03
35085;SHT85;21267;51.032;6.998;2022-09-09T02:04:55;17.07;82.43
35085;SHT85;21267;51.032;6.998;2022-09-09T02:12:41;17.00;84.07
35085;SHT85;21267;51.032;6.998;2022-09-09T02:15:20;16.97;84.46
35085;SHT85;21267;51.032;6.998;2022-09-09T02:17:50;16.96;84.75
35085;SHT85;21267;51.032;6.998;2022-09-09T02:20:19;16.93;84.96
35085;SHT85;21267;51.032;6.998;2022-09-09T02:22:49;16.96;84.94
35085;SHT85;21267;51.032;6.998;2022-09-09T02:25:19;16.97;85.08
35085;SHT85;21267;51.032;6.998;2022-09-09T02:27:47;16.90;85.09
35085;SHT85;21267;51.032;6.998;2022-09-09T02:30:16;16.93;85.05
35085;SHT85;21267;51.032;6.998;2022-09-09T02:32:45;16.96;84.57
35085;SHT85;21267;51.032;6.998;2022-09-09T02:35:16;17.00;84.73
35085;SHT85;21267;51.032;6.998;2022-09-09T02:37:44;16.94;85.29
35085;SHT85;21267;51.032;6.998;2022-09-09T02:40:14;16.89;85.47
35085;SHT85;21267;51.032;6.998;2022-09-09T02:42:43;16.84;85.56
35085;SHT85;21267;51.032;6.998;2022-09-09T02:45:12;16.80;85.83
35085;SHT85;21267;51.032;6.998;2022-09-09T02:51:01;16.75;86.02
35085;SHT85;21267;51.032;6.998;2022-09-09T02:53:41;16.77;86.11
35085;SHT85;21267;51.032;6.998;2022-09-09T02:56:17;16.71;86.21
35085;SHT85;21267;51.032;6.998;2022-09-09T02:58:44;16.73;86.11
35085;SHT85;21267;51.032;6.998;2022-09-09T03:01:12;16.76;86.31
35085;SHT85;21267;51.032;6.998;2022-09-09T03:03:39;16.75;86.05
35085;SHT85;21267;51.032;6.998;2022-09-09T03:06:06;16.76;85.89
35085;SHT85;21267;51.032;6.998;2022-09-09T03:08:32;16.86;85.01
35085;SHT85;21267;51.032;6.998;2022-09-09T03:10:59;16.92;84.69
35085;SHT85;21267;51.032;6.998;2022-09-09T03:13:29;17.02;83.89
35085;SHT85;21267;51.032;6.998;2022-09-09T03:15:55;17.03;83.91
35085;SHT85;21267;51.032;6.998;2022-09-09T03:18:22;17.00;84.17
35085;SHT85;21267;51.032;6.998;2022-09-09T03:20:49;16.87;84.78
35085;SHT85;21267;51.032;6.998;2022-09-09T03:23:17;16.79;85.87
35085;SHT85;21267;51.032;6.998;2022-09-09T03:25:48;16.82;85.73
35085;SHT85;21267;51.032;6.998;2022-09-09T03:28:15;16.79;85.93
35085;SHT85;21267;51.032;6.998;2022-09-09T03:30:41;16.80;86.04
35085;SHT85;21267;51.032;6.998;2022-09-09T03:33:08;16.79;85.96
35085;SHT85;21267;51.032;6.998;2022-09-09T03:35:35;16.79;85.85
35085;SHT85;21267;51.032;6.998;2022-09-09T03:38:02;16.82;85.89
35085;SHT85;21267;51.032;6.998;2022-09-09T03:40:28;16.86;85.74
35085;SHT85;21267;51.032;6.998;2022-09-09T03:42:55;16.84;85.53
35085;SHT85;21267;51.032;6.998;2022-09-09T03:45:22;16.89;85.68
35085;SHT85;21267;51.032;6.998;2022-09-09T03:47:48;16.80;85.76
35085;SHT85;21267;51.032;6.998;2022-09-09T03:50:16;16.89;85.87
35085;SHT85;21267;51.032;6.998;2022-09-09T03:52:44;16.80;86.07
35085;SHT85;21267;51.032;6.998;2022-09-09T03:55:11;16.86;85.87
35085;SHT85;21267;51.032;6.998;2022-09-09T03:57:37;16.84;85.93
35085;SHT85;21267;51.032;6.998;2022-09-09T04:00:06;16.82;85.87
35085;SHT85;21267;51.032;6.998;2022-09-09T04:02:33;16.82;86.02
35085;SHT85;21267;51.032;6.998;2022-09-09T04:05:00;16.86;85.81
35085;SHT85;21267;51.032;6.998;2022-09-09T04:07:27;16.80;86.03
35085;SHT85;21267;51.032;6.998;2022-09-09T04:09:54;16.80;85.98
35085;SHT85;21267;51.032;6.998;2022-09-09T04:12:20;16.77;86.10
35085;SHT85;21267;51.032;6.998;2022-09-09T04:14:48;16.77;86.04
35085;SHT85;21267;51.032;6.998;2022-09-09T04:17:15;16.82;85.91
35085;SHT85;21267;51.032;6.998;2022-09-09T04:19:42;16.84;85.90
35085;SHT85;21267;51.032;6.998;2022-09-09T04:22:08;16.86;85.90
35085;SHT85;21267;51.032;6.998;2022-09-09T04:24:35;16.84;85.74
35085;SHT85;21267;51.032;6.998;2022-09-09T04:27:02;16.86;85.88
35085;SHT85;21267;51.032;6.998;2022-09-09T04:29:29;16.84;85.87
35085;SHT85;21267;51.032;6.998;2022-09-09T04:31:55;16.84;85.72
35085;SHT85;21267;51.032;6.998;2022-09-09T04:34:22;16.89;85.70
35085;SHT85;21267;51.032;6.998;2022-09-09T04:36:49;16.89;85.77
35085;SHT85;21267;51.032;6.998;2022-09-09T04:39:15;16.86;85.72
35085;SHT85;21267;51.032;6.998;2022-09-09T04:41:42;16.84;85.84
35085;SHT85;21267;51.032;6.998;2022-09-09T04:44:08;16.87;85.79
35085;SHT85;21267;51.032;6.998;2022-09-09T04:46:36;16.82;85.70
35085;SHT85;21267;51.032;6.998;2022-09-09T04:49:02;16.83;85.72
35085;SHT85;21267;51.032;6.998;2022-09-09T04:51:29;16.82;85.91
35085;SHT85;21267;51.032;6.998;2022-09-09T04:53:57;16.82;85.80
35085;SHT85;21267;51.032;6.998;2022-09-09T04:56:24;16.86;85.75
35085;SHT85;21267;51.032;6.998;2022-09-09T04:58:53;16.84;85.70
35085;SHT85;21267;51.032;6.998;2022-09-09T05:01:21;16.89;85.67
35085;SHT85;21267;51.032;6.998;2022-09-09T05:03:48;16.87;85.46
35085;SHT85;21267;51.032;6.998;2022-09-09T05:06:17;16.89;85.32
35085;SHT85;21267;51.032;6.998;2022-09-09T05:08:45;16.92;85.11
35085;SHT85;21267;51.032;6.998;2022-09-09T05:11:19;16.89;85.21
35085;SHT85;21267;51.032;6.998;2022-09-09T05:13:46;16.87;85.32
35085;SHT85;21267;51.032;6.998;2022-09-09T05:16:14;16.96;85.38
35085;SHT85;21267;51.032;6.998;2022-09-09T05:18:44;16.92;85.25
35085;SHT85;21267;51.032;6.998;2022-09-09T05:21:13;16.93;85.25
35085;SHT85;21267;51.032;6.998;2022-09-09T05:23:40;16.69;87.13
35085;SHT85;21267;51.032;6.998;2022-09-09T05:26:11;16.36;88.47
35085;SHT85;21267;51.032;6.998;2022-09-09T05:28:43;16.31;88.87
35085;SHT85;21267;51.032;6.998;2022-09-09T05:31:11;16.22;89.26
35085;SHT85;21267;51.032;6.998;2022-09-09T05:33:44;16.18;89.62
35085;SHT85;21267;51.032;6.998;2022-09-09T05:36:14;16.17;89.85
35085;SHT85;21267;51.032;6.998;2022-09-09T05:38:42;16.17;89.73
35085;SHT85;21267;51.032;6.998;2022-09-09T05:41:09;16.17;89.55
35085;SHT85;21267;51.032;6.998;2022-09-09T05:43:42;16.21;89.89
35085;SHT85;21267;51.032;6.998;2022-09-09T05:46:18;16.25;89.54
35085;SHT85;21267;51.032;6.998;2022-09-09T05:48:46;16.21;89.57
35085;SHT85;21267;51.032;6.998;2022-09-09T05:51:15;16.25;89.68
35085;SHT85;21267;51.032;6.998;2022-09-09T05:53:45;16.25;90.01
35085;SHT85;21267;51.032;6.998;2022-09-09T05:56:15;16.38;89.27
35085;SHT85;21267;51.032;6.998;2022-09-09T05:58:41;16.43;89.32
35085;SHT85;21267;51.032;6.998;2022-09-09T06:03:42;16.52;89.58
35085;SHT85;21267;51.032;6.998;2022-09-09T06:06:15;16.46;89.39
35085;SHT85;21267;51.032;6.998;2022-09-09T06:08:44;16.43;89.42
35085;SHT85;21267;51.032;6.998;2022-09-09T06:11:13;16.48;89.43
35085;SHT85;21267;51.032;6.998;2022-09-09T06:13:41;16.48;89.48
35085;SHT85;21267;51.032;6.998;2022-09-09T06:16:09;16.55;89.14
35085;SHT85;21267;51.032;6.998;2022-09-09T06:18:38;16.56;88.96
35085;SHT85;21267;51.032;6.998;2022-09-09T06:21:07;16.59;88.87
35085;SHT85;21267;51.032;6.998;2022-09-09T06:23:35;16.62;88.65
35085;SHT85;21267;51.032;6.998;2022-09-09T06:26:12;16.75;88.53
35085;SHT85;21267;51.032;6.998;2022-09-09T06:28:40;16.79;88.40
35085;SHT85;21267;51.032;6.998;2022-09-09T06:33:40;16.82;87.50
35085;SHT85;21267;51.032;6.998;2022-09-09T06:36:13;16.86;87.05
35085;SHT85;21267;51.032;6.998;2022-09-09T06:38:42;16.92;86.57
35085;SHT85;21267;51.032;6.998;2022-09-09T06:41:13;17.03;86.02
35085;SHT85;21267;51.032;6.998;2022-09-09T06:43:40;17.10;85.37
35085;SHT85;21267;51.032;6.998;2022-09-09T06:46:12;17.20;85.26
35085;SHT85;21267;51.032;6.998;2022-09-09T06:48:40;17.23;85.19
35085;SHT85;21267;51.032;6.998;2022-09-09T06:51:20;17.37;84.76
35085;SHT85;21267;51.032;6.998;2022-09-09T06:53:51;17.42;84.03
35085;SHT85;21267;51.032;6.998;2022-09-09T06:56:36;17.51;83.98
35085;SHT85;21267;51.032;6.998;2022-09-09T06:59:04;17.58;83.30
35085;SHT85;21267;51.032;6.998;2022-09-09T07:01:33;17.73;82.91
35085;SHT85;21267;51.032;6.998;2022-09-09T07:04:01;17.95;81.70
35085;SHT85;21267;51.032;6.998;2022-09-09T07:06:29;18.23;81.26
35085;SHT85;21267;51.032;6.998;2022-09-09T07:08:58;18.37;80.60
35085;SHT85;21267;51.032;6.998;2022-09-09T07:11:28;18.26;79.30
35085;SHT85;21267;51.032;6.998;2022-09-09T07:13:56;18.48;79.22
35085;SHT85;21267;51.032;6.998;2022-09-09T07:16:24;18.75;78.04
35085;SHT85;21267;51.032;6.998;2022-09-09T07:18:52;19.19;76.95
35085;SHT85;21267;51.032;6.998;2022-09-09T07:21:19;19.35;75.77
35085;SHT85;21267;51.032;6.998;2022-09-09T07:23:47;19.20;75.81
35085;SHT85;21267;51.032;6.998;2022-09-09T07:26:16;19.01;76.01
35085;SHT85;21267;51.032;6.998;2022-09-09T07:28:42;18.88;76.39
35085;SHT85;21267;51.032;6.998;2022-09-09T07:31:21;18.68;76.48
35085;SHT85;21267;51.032;6.998;2022-09-09T07:33:48;18.64;77.07
35085;SHT85;21267;51.032;6.998;2022-09-09T07:36:17;18.60;76.58
35085;SHT85;21267;51.032;6.998;2022-09-09T07:38:45;19.06;75.19
35085;SHT85;21267;51.032;6.998;2022-09-09T07:41:21;19.22;74.55
35085;SHT85;21267;51.032;6.998;2022-09-09T07:43:49;19.94;72.77
35085;SHT85;21267;51.032;6.998;2022-09-09T07:46:18;19.75;72.45
35085;SHT85;21267;51.032;6.998;2022-09-09T07:48:47;19.42;72.02
35085;SHT85;21267;51.032;6.998;2022-09-09T07:51:23;19.66;71.83
35085;SHT85;21267;51.032;6.998;2022-09-09T07:53:55;19.85;70.16
35085;SHT85;21267;51.032;6.998;2022-09-09T07:56:24;19.47;70.41
35085;SHT85;21267;51.032;6.998;2022-09-09T07:58:52;19.36;70.41
35085;SHT85;21267;51.032;6.998;2022-09-09T08:01:24;19.45;70.60
35085;SHT85;21267;51.032;6.998;2022-09-09T08:04:06;19.39;70.48
35085;SHT85;21267;51.032;6.998;2022-09-09T08:06:39;19.24;70.88
35085;SHT85;21267;51.032;6.998;2022-09-09T08:09:07;19.16;70.89
35085;SHT85;21267;51.032;6.998;2022-09-09T08:11:34;19.20;71.12
35085;SHT85;21267;51.032;6.998;2022-09-09T08:14:05;19.22;71.05
35085;SHT85;21267;51.032;6.998;2022-09-09T08:16:36;19.29;70.92
35085;SHT85;21267;51.032;6.998;2022-09-09T08:19:03;19.33;70.32
35085;SHT85;21267;51.032;6.998;2022-09-09T08:21:31;19.32;69.23
35085;SHT85;21267;51.032;6.998;2022-09-09T08:24:00;19.40;68.39
35085;SHT85;21267;51.032;6.998;2022-09-09T08:26:30;19.35;67.85
35085;SHT85;21267;51.032;6.998;2022-09-09T08:28:58;19.40;67.72
35085;SHT85;21267;51.032;6.998;2022-09-09T08:31:29;19.32;67.71
35085;SHT85;21267;51.032;6.998;2022-09-09T08:33:57;19.46;67.56
35085;SHT85;21267;51.032;6.998;2022-09-09T08:36:28;19.45;67.56
35085;SHT85;21267;51.032;6.998;2022-09-09T08:38:57;19.54;67.79
35085;SHT85;21267;51.032;6.998;2022-09-09T08:53:11;19.84;66.06
35085;SHT85;21267;51.032;6.998;2022-09-09T08:55:50;19.88;65.72
35085;SHT85;21267;51.032;6.998;2022-09-09T08:58:23;19.98;65.79
35085;SHT85;21267;51.032;6.998;2022-09-09T09:11:21;19.84;62.32
35085;SHT85;21267;51.032;6.998;2022-09-09T09:14:01;20.07;62.23
35085;SHT85;21267;51.032;6.998;2022-09-09T09:16:34;20.40;61.71
35085;SHT85;21267;51.032;6.998;2022-09-09T09:19:04;20.70;60.89
35085;SHT85;21267;51.032;6.998;2022-09-09T09:21:40;20.36;61.16
35085;SHT85;21267;51.032;6.998;2022-09-09T09:24:20;20.32;61.29
35085;SHT85;21267;51.032;6.998;2022-09-09T09:26:49;20.12;61.60
35085;SHT85;21267;51.032;6.998;2022-09-09T09:29:18;20.05;61.85
35085;SHT85;21267;51.032;6.998;2022-09-09T09:31:51;19.95;62.28
35085;SHT85;21267;51.032;6.998;2022-09-09T09:34:18;20.05;62.62
35085;SHT85;21267;51.032;6.998;2022-09-09T09:36:52;20.01;62.83
35085;SHT85;21267;51.032;6.998;2022-09-09T09:39:32;19.88;63.22
35085;SHT85;21267;51.032;6.998;2022-09-09T09:42:24;19.81;63.69
35085;SHT85;21267;51.032;6.998;2022-09-09T09:44:51;19.78;63.77
35085;SHT85;21267;51.032;6.998;2022-09-09T09:47:20;19.87;63.73
35085;SHT85;21267;51.032;6.998;2022-09-09T09:49:58;19.92;63.73
35085;SHT85;21267;51.032;6.998;2022-09-09T09:52:28;19.84;63.67
35085;SHT85;21267;51.032;6.998;2022-09-09T09:54:56;19.77;64.01
35085;SHT85;21267;51.032;6.998;2022-09-09T09:57:28;19.81;64.17
35085;SHT85;21267;51.032;6.998;2022-09-09T10:00:21;19.98;63.85
35085;SHT85;21267;51.032;6.998;2022-09-09T10:02:48;20.26;63.55
35085;SHT85;21267;51.032;6.998;2022-09-09T10:05:23;20.42;63.12
35085;SHT85;21267;51.032;6.998;2022-09-09T10:16:37;20.81;63.01
35085;SHT85;21267;51.032;6.998;2022-09-09T10:19:14;20.93;62.91
35085;SHT85;21267;51.032;6.998;2022-09-09T10:25:20;20.80;63.10
35085;SHT85;21267;51.032;6.998;2022-09-09T10:33:10;20.84;62.36
35085;SHT85;21267;51.032;6.998;2022-09-09T10:35:53;20.94;61.53
35085;SHT85;21267;51.032;6.998;2022-09-09T10:38:29;20.80;61.71
35085;SHT85;21267;51.032;6.998;2022-09-09T10:46:33;20.50;62.39
35085;SHT85;21267;51.032;6.998;2022-09-09T10:56:59;20.77;61.82
35085;SHT85;21267;51.032;6.998;2022-09-09T10:59:34;20.73;61.35
35085;SHT85;21267;51.032;6.998;2022-09-09T11:04:43;21.14;60.21
35085;SHT85;21267;51.032;6.998;2022-09-09T11:07:23;21.44;59.48
35085;SHT85;21267;51.032;6.998;2022-09-09T11:09:58;21.16;60.11
35085;SHT85;21267;51.032;6.998;2022-09-09T11:12:27;21.17;60.27
35085;SHT85;21267;51.032;6.998;2022-09-09T11:15:04;22.16;58.57
35085;SHT85;21267;51.032;6.998;2022-09-09T11:17:36;22.22;58.32
35085;SHT85;21267;51.032;6.998;2022-09-09T11:20:11;22.22;58.58
35085;SHT85;21267;51.032;6.998;2022-09-09T11:23:03;21.59;59.03
35085;SHT85;21267;51.032;6.998;2022-09-09T11:25:37;21.45;59.88
35085;SHT85;21267;51.032;6.998;2022-09-09T11:34:33;21.07;60.65
35085;SHT85;21267;51.032;6.998;2022-09-09T11:37:45;20.86;60.58
35085;SHT85;21267;51.032;6.998;2022-09-09T11:40:18;20.86;60.40
35085;SHT85;21267;51.032;6.998;2022-09-09T11:42:47;20.90;60.12
35085;SHT85;21267;51.032;6.998;2022-09-09T11:45:25;20.62;59.09
35085;SHT85;21267;51.032;6.998;2022-09-09T11:47:54;20.55;59.51
35085;SHT85;21267;51.032;6.998;2022-09-09T11:52:48;20.67;59.59
35085;SHT85;21267;51.032;6.998;2022-09-09T12:03:05;20.98;59.62
35085;SHT85;21267;51.032;6.998;2022-09-09T12:05:51;20.96;59.74
35085;SHT85;21267;51.032;6.998;2022-09-09T12:08:22;20.94;59.85
35085;SHT85;21267;51.032;6.998;2022-09-09T12:10:57;20.98;59.65
35085;SHT85;21267;51.032;6.998;2022-09-09T12:13:27;20.87;59.52
35085;SHT85;21267;51.032;6.998;2022-09-09T12:15:58;20.90;59.49
35085;SHT85;21267;51.032;6.998;2022-09-09T12:18:40;20.83;59.41
35085;SHT85;21267;51.032;6.998;2022-09-09T12:24:11;20.87;59.84
35085;SHT85;21267;51.032;6.998;2022-09-09T12:26:47;20.76;59.62
35085;SHT85;21267;51.032;6.998;2022-09-09T12:29:49;20.77;59.55
35085;SHT85;21267;51.032;6.998;2022-09-09T12:32:24;20.84;59.30
35085;SHT85;21267;51.032;6.998;2022-09-09T12:35:02;21.13;58.94
35085;SHT85;21267;51.032;6.998;2022-09-09T12:37:38;21.13;58.67
35085;SHT85;21267;51.032;6.998;2022-09-09T12:42:39;21.07;59.04
35085;SHT85;21267;51.032;6.998;2022-09-09T12:47:50;20.94;59.59
35085;SHT85;21267;51.032;6.998;2022-09-09T12:50:23;20.86;59.51
35085;SHT85;21267;51.032;6.998;2022-09-09T12:52:55;20.76;59.79
35085;SHT85;21267;51.032;6.998;2022-09-09T12:55:28;20.76;60.01
35085;SHT85;21267;51.032;6.998;2022-09-09T12:57:57;20.72;60.47
35085;SHT85;21267;51.032;6.998;2022-09-09T13:00:26;20.57;61.44
35085;SHT85;21267;51.032;6.998;2022-09-09T13:02:58;19.63;69.18
35085;SHT85;21267;51.032;6.998;2022-09-09T13:05:31;19.68;69.94
35085;SHT85;21267;51.032;6.998;2022-09-09T13:08:02;20.14;68.73
35085;SHT85;21267;51.032;6.998;2022-09-09T13:10:33;20.66;67.86
35085;SHT85;21267;51.032;6.998;2022-09-09T13:13:21;21.28;66.29
35085;SHT85;21267;51.032;6.998;2022-09-09T13:15:53;21.03;65.69
35085;SHT85;21267;51.032;6.998;2022-09-09T13:18:24;21.34;65.62
35085;SHT85;21267;51.032;6.998;2022-09-09T13:20:51;21.00;66.14
35085;SHT85;21267;51.032;6.998;2022-09-09T13:23:20;21.07;66.10
35085;SHT85;21267;51.032;6.998;2022-09-09T13:25:57;20.56;67.90
35085;SHT85;21267;51.032;6.998;2022-09-09T13:28:27;20.57;68.69
35085;SHT85;21267;51.032;6.998;2022-09-09T13:31:01;20.26;69.04
35085;SHT85;21267;51.032;6.998;2022-09-09T13:33:39;20.36;69.72
35085;SHT85;21267;51.032;6.998;2022-09-09T13:36:06;20.26;70.35
35085;SHT85;21267;51.032;6.998;2022-09-09T13:38:40;20.29;70.39
35085;SHT85;21267;51.032;6.998;2022-09-09T13:41:23;20.19;71.18
35085;SHT85;21267;51.032;6.998;2022-09-09T13:43:51;20.02;72.61
35085;SHT85;21267;51.032;6.998;2022-09-09T13:46:23;19.94;74.06
35085;SHT85;21267;51.032;6.998;2022-09-09T13:49:01;19.73;75.41
35085;SHT85;21267;51.032;6.998;2022-09-09T13:51:43;19.74;78.85
35085;SHT85;21267;51.032;6.998;2022-09-09T13:54:14;19.77;78.82
35085;SHT85;21267;51.032;6.998;2022-09-09T13:56:42;20.05;78.83
35085;SHT85;21267;51.032;6.998;2022-09-09T13:59:15;20.12;78.27
35085;SHT85;21267;51.032;6.998;2022-09-09T14:01:42;21.13;73.98
35085;SHT85;21267;51.032;6.998;2022-09-09T14:04:10;21.44;74.22
35085;SHT85;21267;51.032;6.998;2022-09-09T14:06:38;21.21;74.26
35085;SHT85;21267;51.032;6.998;2022-09-09T14:09:06;21.28;74.27
35085;SHT85;21267;51.032;6.998;2022-09-09T14:11:34;21.03;70.28
35085;SHT85;21267;51.032;6.998;2022-09-09T14:14:00;20.86;69.35
35085;SHT85;21267;51.032;6.998;2022-09-09T14:16:31;20.75;70.12
35085;SHT85;21267;51.032;6.998;2022-09-09T14:18:57;20.63;71.06
35085;SHT85;21267;51.032;6.998;2022-09-09T14:21:26;20.30;71.19
35085;SHT85;21267;51.032;6.998;2022-09-09T14:23:53;19.77;72.64
35085;SHT85;21267;51.032;6.998;2022-09-09T14:26:21;19.50;72.74
35085;SHT85;21267;51.032;6.998;2022-09-09T14:28:48;18.81;79.08
35085;SHT85;21267;51.032;6.998;2022-09-09T14:31:24;17.66;85.17
35085;SHT85;21267;51.032;6.998;2022-09-09T14:33:51;17.37;87.53
35085;SHT85;21267;51.032;6.998;2022-09-09T14:36:18;17.27;86.65
35085;SHT85;21267;51.032;6.998;2022-09-09T14:38:45;17.14;87.47
35085;SHT85;21267;51.032;6.998;2022-09-09T14:41:14;16.96;89.16
35085;SHT85;21267;51.032;6.998;2022-09-09T14:43:43;16.87;88.36
35085;SHT85;21267;51.032;6.998;2022-09-09T14:46:11;16.79;89.52
35085;SHT85;21267;51.032;6.998;2022-09-09T14:48:38;16.99;88.09
35085;SHT85;21267;51.032;6.998;2022-09-09T14:51:09;16.89;88.06
35085;SHT85;21267;51.032;6.998;2022-09-09T14:53:37;16.84;86.59
35085;SHT85;21267;51.032;6.998;2022-09-09T14:56:15;16.86;86.18
35085;SHT85;21267;51.032;6.998;2022-09-09T14:58:42;16.94;85.67
35085;SHT85;21267;51.032;6.998;2022-09-09T15:01:15;17.03;86.84
35085;SHT85;21267;51.032;6.998;2022-09-09T15:03:49;17.00;86.95
35085;SHT85;21267;51.032;6.998;2022-09-09T15:06:19;17.10;86.24
35085;SHT85;21267;51.032;6.998;2022-09-09T15:08:47;17.13;86.27
35085;SHT85;21267;51.032;6.998;2022-09-09T15:11:15;17.23;87.02
35085;SHT85;21267;51.032;6.998;2022-09-09T15:13:43;17.44;85.99
35085;SHT85;21267;51.032;6.998;2022-09-09T15:16:11;17.59;85.97
35085;SHT85;21267;51.032;6.998;2022-09-09T15:18:39;17.68;85.48
35085;SHT85;21267;51.032;6.998;2022-09-09T15:21:10;17.79;84.68
35085;SHT85;21267;51.032;6.998;2022-09-09T15:23:37;17.96;84.57
35085;SHT85;21267;51.032;6.998;2022-09-09T15:26:04;18.03;84.38
35085;SHT85;21267;51.032;6.998;2022-09-09T15:28:32;18.17;84.35
35085;SHT85;21267;51.032;6.998;2022-09-09T15:31:12;18.14;85.03
35085;SHT85;21267;51.032;6.998;2022-09-09T15:33:40;18.36;84.15
35085;SHT85;21267;51.032;6.998;2022-09-09T15:36:24;18.30;83.12
35085;SHT85;21267;51.032;6.998;2022-09-09T15:38:52;18.43;83.78
35085;SHT85;21267;51.032;6.998;2022-09-09T15:41:20;18.41;83.39
35085;SHT85;21267;51.032;6.998;2022-09-09T15:43:52;18.72;82.44
35085;SHT85;21267;51.032;6.998;2022-09-09T15:51:29;19.09;81.38
35085;SHT85;21267;51.032;6.998;2022-09-09T15:54:10;19.01;81.14
35085;SHT85;21267;51.032;6.998;2022-09-09T15:56:37;18.94;81.06
35085;SHT85;21267;51.032;6.998;2022-09-09T15:59:04;19.05;81.05
35085;SHT85;21267;51.032;6.998;2022-09-09T16:01:31;18.98;81.12
35085;SHT85;21267;51.032;6.998;2022-09-09T16:03:59;19.01;80.45
35085;SHT85;21267;51.032;6.998;2022-09-09T16:06:28;19.63;78.98
35085;SHT85;21267;51.032;6.998;2022-09-09T16:08:57;19.46;77.68
35085;SHT85;21267;51.032;6.998;2022-09-09T16:11:26;19.33;78.60
35085;SHT85;21267;51.032;6.998;2022-09-09T16:13:55;19.22;79.87
35085;SHT85;21267;51.032;6.998;2022-09-09T16:16:24;19.08;80.74
35085;SHT85;21267;51.032;6.998;2022-09-09T16:18:53;19.03;81.31
35085;SHT85;21267;51.032;6.998;2022-09-09T16:21:24;18.89;80.21
35085;SHT85;21267;51.032;6.998;2022-09-09T16:23:52;18.84;79.05
35085;SHT85;21267;51.032;6.998;2022-09-09T16:26:22;18.55;78.29
35085;SHT85;21267;51.032;6.998;2022-09-09T16:28:49;18.54;79.07
35085;SHT85;21267;51.032;6.998;2022-09-09T16:31:19;18.45;78.78
35085;SHT85;21267;51.032;6.998;2022-09-09T16:33:46;18.36;79.23
35085;SHT85;21267;51.032;6.998;2022-09-09T16:36:16;18.44;79.65
35085;SHT85;21267;51.032;6.998;2022-09-09T16:38:43;18.41;79.88
35085;SHT85;21267;51.032;6.998;2022-09-09T16:41:11;18.37;79.73
35085;SHT85;21267;51.032;6.998;2022-09-09T16:43:38;18.38;80.24
35085;SHT85;21267;51.032;6.998;2022-09-09T16:46:17;18.33;80.76
35085;SHT85;21267;51.032;6.998;2022-09-09T16:48:45;18.27;80.35
35085;SHT85;21267;51.032;6.998;2022-09-09T16:51:26;18.33;80.28
35085;SHT85;21267;51.032;6.998;2022-09-09T16:53:54;18.34;80.30
35085;SHT85;21267;51.032;6.998;2022-09-09T16:56:22;18.27;80.56
35085;SHT85;21267;51.032;6.998;2022-09-09T16:58:56;18.30;79.91
35085;SHT85;21267;51.032;6.998;2022-09-09T17:01:24;18.34;80.19
35085;SHT85;21267;51.032;6.998;2022-09-09T17:03:58;18.24;80.87
35085;SHT85;21267;51.032;6.998;2022-09-09T17:06:28;18.23;81.40
35085;SHT85;21267;51.032;6.998;2022-09-09T17:09:00;18.41;81.29
35085;SHT85;21267;51.032;6.998;2022-09-09T17:11:28;18.43;81.21
35085;SHT85;21267;51.032;6.998;2022-09-09T17:13:56;18.61;81.75
35085;SHT85;21267;51.032;6.998;2022-09-09T17:16:26;18.61;81.83
35085;SHT85;21267;51.032;6.998;2022-09-09T17:18:57;18.16;82.72
35085;SHT85;21267;51.032;6.998;2022-09-09T17:21:25;18.10;83.24
35085;SHT85;21267;51.032;6.998;2022-09-09T17:23:53;17.92;83.81
35085;SHT85;21267;51.032;6.998;2022-09-09T17:26:23;17.71;84.37
35085;SHT85;21267;51.032;6.998;2022-09-09T17:28:50;17.62;84.68
35085;SHT85;21267;51.032;6.998;2022-09-09T17:31:25;17.55;85.14
35085;SHT85;21267;51.032;6.998;2022-09-09T17:33:52;17.54;85.25
35085;SHT85;21267;51.032;6.998;2022-09-09T17:36:37;17.62;85.35
35085;SHT85;21267;51.032;6.998;2022-09-09T17:39:05;17.55;85.23
35085;SHT85;21267;51.032;6.998;2022-09-09T17:41:34;17.51;85.45
35085;SHT85;21267;51.032;6.998;2022-09-09T17:44:02;17.51;85.54
35085;SHT85;21267;51.032;6.998;2022-09-09T17:46:32;17.54;85.72
35085;SHT85;21267;51.032;6.998;2022-09-09T17:49:05;17.45;85.96
35085;SHT85;21267;51.032;6.998;2022-09-09T17:51:33;17.51;86.05
35085;SHT85;21267;51.032;6.998;2022-09-09T17:58:38;17.45;86.25
35085;SHT85;21267;51.032;6.998;2022-09-09T18:01:14;17.51;86.04
35085;SHT85;21267;51.032;6.998;2022-09-09T18:03:42;17.50;86.15
35085;SHT85;21267;51.032;6.998;2022-09-09T18:06:12;17.48;86.25
35085;SHT85;21267;51.032;6.998;2022-09-09T18:08:39;17.52;85.87
35085;SHT85;21267;51.032;6.998;2022-09-09T18:11:06;17.45;85.77
35085;SHT85;21267;51.032;6.998;2022-09-09T18:13:33;17.50;85.57
35085;SHT85;21267;51.032;6.998;2022-09-09T18:16:01;17.57;84.43